sensor_id;sensor_type;location;lat;lon;timestamp;temperature;humidity
45008;DHT22;30743;52.008;5.644;2023-10-31T00:01:53;16.20;99.90
45008;DHT22;30743;52.008;5.644;2023-10-31T00:04:20;16.20;99.90
45008;DHT22;30743;52.008;5.644;2023-10-31T00:06:46;16.20;99.90
45008;DHT22;30743;52.008;5.644;2023-10-31T00:09:12;16.20;99.90
45008;DHT22;30743;52.008;5.644;2023-10-31T00:11:37;16.20;99.90
45008;DHT22;30743;52.008;5.644;2023-10-31T00:14:03;16.00;99.90
45008;DHT22;30743;52.008;5.644;2023-10-31T00:16:29;16.00;99.90
45008;DHT22;30743;52.008;5.644;2023-10-31T00:18:54;15.90;99.90
45008;DHT22;30743;52.008;5.644;2023-10-31T00:21:20;15.80;99.90
45008;DHT22;30743;52.008;5.644;2023-10-31T00:23:47;15.80;99.90
45008;DHT22;30743;52.008;5.644;2023-10-31T00:26:12;15.70;99.90
45008;DHT22;30743;52.008;5.644;2023-10-31T00:28:38;15.80;99.90
45008;DHT22;30743;52.008;5.644;2023-10-31T00:31:03;15.80;99.90
45008;DHT22;30743;52.008;5.644;2023-10-31T00:33:30;15.50;99.90
45008;DHT22;30743;52.008;5.644;2023-10-31T00:35:56;15.70;99.90
45008;DHT22;30743;52.008;5.644;2023-10-31T00:38:21;15.70;99.90
45008;DHT22;30743;52.008;5.644;2023-10-31T00:40:47;15.70;99.90
45008;DHT22;30743;52.008;5.644;2023-10-31T00:43:13;15.70;99.90
45008;DHT22;30743;52.008;5.644;2023-10-31T00:45:38;15.70;99.90
45008;DHT22;30743;52.008;5.644;2023-10-31T00:48:04;15.60;99.90
45008;DHT22;30743;52.008;5.644;2023-10-31T00:50:30;15.50;99.90
45008;DHT22;30743;52.008;5.644;2023-10-31T00:52:55;15.70;99.90
45008;DHT22;30743;52.008;5.644;2023-10-31T00:55:21;15.70;99.90
45008;DHT22;30743;52.008;5.644;2023-10-31T00:57:46;15.60;99.90
45008;DHT22;30743;52.008;5.644;2023-10-31T01:00:12;15.40;99.90
45008;DHT22;30743;52.008;5.644;2023-10-31T01:02:38;15.30;99.90
45008;DHT22;30743;52.008;5.644;2023-10-31T01:05:03;15.40;99.90
45008;DHT22;30743;52.008;5.644;2023-10-31T01:07:29;15.40;99.90
45008;DHT22;30743;52.008;5.644;2023-10-31T01:09:55;15.40;99.90
45008;DHT22;30743;52.008;5.644;2023-10-31T01:12:20;15.40;99.90
45008;DHT22;30743;52.008;5.644;2023-10-31T01:14:46;15.30;99.90
45008;DHT22;30743;52.008;5.644;2023-10-31T01:17:12;15.20;99.90
45008;DHT22;30743;52.008;5.644;2023-10-31T01:19:37;15.20;99.90
45008;DHT22;30743;52.008;5.644;2023-10-31T01:22:03;15.00;99.90
45008;DHT22;30743;52.008;5.644;2023-10-31T01:24:28;14.80;99.90
45008;DHT22;30743;52.008;5.644;2023-10-31T01:26:54;14.60;99.90
45008;DHT22;30743;52.008;5.644;2023-10-31T01:29:19;14.70;99.90
45008;DHT22;30743;52.008;5.644;2023-10-31T01:31:46;14.60;99.90
45008;DHT22;30743;52.008;5.644;2023-10-31T01:34:11;14.40;99.90
45008;DHT22;30743;52.008;5.644;2023-10-31T01:36:37;14.30;99.90
45008;DHT22;30743;52.008;5.644;2023-10-31T01:39:02;14.30;99.90
45008;DHT22;30743;52.008;5.644;2023-10-31T01:41:28;14.40;99.90
45008;DHT22;30743;52.008;5.644;2023-10-31T01:43:53;14.30;99.90
45008;DHT22;30743;52.008;5.644;2023-10-31T01:46:19;14.40;99.90
45008;DHT22;30743;52.008;5.644;2023-10-31T01:48:44;14.40;99.90
45008;DHT22;30743;52.008;5.644;2023-10-31T01:51:10;14.30;99.90
45008;DHT22;30743;52.008;5.644;2023-10-31T01:53:36;14.40;99.90
45008;DHT22;30743;52.008;5.644;2023-10-31T01:56:03;14.50;99.90
45008;DHT22;30743;52.008;5.644;2023-10-31T01:58:31;14.60;99.90
45008;DHT22;30743;52.008;5.644;2023-10-31T02:00:58;14.50;99.90
45008;DHT22;30743;52.008;5.644;2023-10-31T02:03:24;14.30;99.90
45008;DHT22;30743;52.008;5.644;2023-10-31T02:05:51;14.50;99.90
45008;DHT22;30743;52.008;5.644;2023-10-31T02:08:17;14.70;99.90
45008;DHT22;30743;52.008;5.644;2023-10-31T02:10:42;14.60;99.90
45008;DHT22;30743;52.008;5.644;2023-10-31T02:13:15;14.60;99.90
45008;DHT22;30743;52.008;5.644;2023-10-31T02:15:41;14.70;99.90
45008;DHT22;30743;52.008;5.644;2023-10-31T02:18:07;14.70;99.90
45008;DHT22;30743;52.008;5.644;2023-10-31T02:20:32;14.60;99.90
45008;DHT22;30743;52.008;5.644;2023-10-31T02:22:58;14.90;99.90
45008;DHT22;30743;52.008;5.644;2023-10-31T02:25:24;15.10;99.90
45008;DHT22;30743;52.008;5.644;2023-10-31T02:27:49;15.20;99.90
45008;DHT22;30743;52.008;5.644;2023-10-31T02:30:15;15.10;99.90
45008;DHT22;30743;52.008;5.644;2023-10-31T02:32:41;14.90;99.90
45008;DHT22;30743;52.008;5.644;2023-10-31T02:35:07;14.70;99.90
45008;DHT22;30743;52.008;5.644;2023-10-31T02:37:33;14.80;99.90
45008;DHT22;30743;52.008;5.644;2023-10-31T02:39:59;14.70;99.90
45008;DHT22;30743;52.008;5.644;2023-10-31T02:42:26;14.50;99.90
45008;DHT22;30743;52.008;5.644;2023-10-31T02:44:51;14.60;99.90
45008;DHT22;30743;52.008;5.644;2023-10-31T02:47:17;14.50;99.90
45008;DHT22;30743;52.008;5.644;2023-10-31T02:49:43;14.60;99.90
45008;DHT22;30743;52.008;5.644;2023-10-31T02:52:08;14.70;99.90
45008;DHT22;30743;52.008;5.644;2023-10-31T02:54:34;14.50;99.90
45008;DHT22;30743;52.008;5.644;2023-10-31T02:57:00;14.60;99.90
45008;DHT22;30743;52.008;5.644;2023-10-31T02:59:25;14.70;99.90
45008;DHT22;30743;52.008;5.644;2023-10-31T03:01:52;14.60;99.90
45008;DHT22;30743;52.008;5.644;2023-10-31T03:04:18;14.60;99.90
45008;DHT22;30743;52.008;5.644;2023-10-31T03:06:44;14.60;99.90
45008;DHT22;30743;52.008;5.644;2023-10-31T03:09:10;14.50;99.90
45008;DHT22;30743;52.008;5.644;2023-10-31T03:11:35;14.40;99.90
45008;DHT22;30743;52.008;5.644;2023-10-31T03:14:01;14.40;99.90
45008;DHT22;30743;52.008;5.644;2023-10-31T03:16:27;14.20;99.90
45008;DHT22;30743;52.008;5.644;2023-10-31T03:18:52;14.20;99.90
45008;DHT22;30743;52.008;5.644;2023-10-31T03:21:18;14.30;99.90
45008;DHT22;30743;52.008;5.644;2023-10-31T03:23:48;14.40;99.90
45008;DHT22;30743;52.008;5.644;2023-10-31T03:26:17;14.50;99.90
45008;DHT22;30743;52.008;5.644;2023-10-31T03:28:43;14.20;99.90
45008;DHT22;30743;52.008;5.644;2023-10-31T03:31:09;14.30;99.90
45008;DHT22;30743;52.008;5.644;2023-10-31T03:33:35;14.40;99.90
45008;DHT22;30743;52.008;5.644;2023-10-31T03:36:01;14.60;99.90
45008;DHT22;30743;52.008;5.644;2023-10-31T03:38:26;14.60;99.90
45008;DHT22;30743;52.008;5.644;2023-10-31T03:40:52;14.80;99.90
45008;DHT22;30743;52.008;5.644;2023-10-31T03:43:18;14.80;99.90
45008;DHT22;30743;52.008;5.644;2023-10-31T03:45:45;14.80;99.90
45008;DHT22;30743;52.008;5.644;2023-10-31T03:48:11;14.80;99.90
45008;DHT22;30743;52.008;5.644;2023-10-31T03:50:36;14.70;99.90
45008;DHT22;30743;52.008;5.644;2023-10-31T03:53:02;14.80;99.90
45008;DHT22;30743;52.008;5.644;2023-10-31T03:55:27;14.90;99.90
45008;DHT22;30743;52.008;5.644;2023-10-31T03:57:53;15.20;99.90
45008;DHT22;30743;52.008;5.644;2023-10-31T04:00:19;14.70;99.90
45008;DHT22;30743;52.008;5.644;2023-10-31T04:02:44;14.60;99.90
45008;DHT22;30743;52.008;5.644;2023-10-31T04:05:10;14.50;99.90
45008;DHT22;30743;52.008;5.644;2023-10-31T04:07:35;14.40;99.90
45008;DHT22;30743;52.008;5.644;2023-10-31T04:10:01;14.50;99.90
45008;DHT22;30743;52.008;5.644;2023-10-31T04:12:28;14.50;99.90
45008;DHT22;30743;52.008;5.644;2023-10-31T04:14:53;14.50;99.90
45008;DHT22;30743;52.008;5.644;2023-10-31T04:17:19;14.70;99.90
45008;DHT22;30743;52.008;5.644;2023-10-31T04:19:44;14.80;99.90
45008;DHT22;30743;52.008;5.644;2023-10-31T04:22:10;14.70;99.90
45008;DHT22;30743;52.008;5.644;2023-10-31T04:24:35;14.80;99.90
45008;DHT22;30743;52.008;5.644;2023-10-31T04:27:01;14.80;99.90
45008;DHT22;30743;52.008;5.644;2023-10-31T04:29:26;14.90;99.90
45008;DHT22;30743;52.008;5.644;2023-10-31T04:31:52;14.70;99.90
45008;DHT22;30743;52.008;5.644;2023-10-31T04:34:18;14.80;99.90
45008;DHT22;30743;52.008;5.644;2023-10-31T04:36:43;14.90;99.90
45008;DHT22;30743;52.008;5.644;2023-10-31T04:39:09;14.90;99.90
45008;DHT22;30743;52.008;5.644;2023-10-31T04:41:34;15.00;99.90
45008;DHT22;30743;52.008;5.644;2023-10-31T04:44:00;15.10;99.90
45008;DHT22;30743;52.008;5.644;2023-10-31T04:46:26;15.20;99.90
45008;DHT22;30743;52.008;5.644;2023-10-31T04:48:54;15.20;99.90
45008;DHT22;30743;52.008;5.644;2023-10-31T04:51:20;15.20;99.90
45008;DHT22;30743;52.008;5.644;2023-10-31T04:53:46;15.10;99.90
45008;DHT22;30743;52.008;5.644;2023-10-31T04:56:12;15.20;99.90
45008;DHT22;30743;52.008;5.644;2023-10-31T04:58:39;15.20;99.90
45008;DHT22;30743;52.008;5.644;2023-10-31T05:01:08;15.10;99.90
45008;DHT22;30743;52.008;5.644;2023-10-31T05:03:34;15.20;99.90
45008;DHT22;30743;52.008;5.644;2023-10-31T05:05:59;15.40;99.90
45008;DHT22;30743;52.008;5.644;2023-10-31T05:08:25;15.40;99.90
45008;DHT22;30743;52.008;5.644;2023-10-31T05:10:50;15.50;99.90
45008;DHT22;30743;52.008;5.644;2023-10-31T05:13:16;15.60;99.90
45008;DHT22;30743;52.008;5.644;2023-10-31T05:15:41;16.00;99.90
45008;DHT22;30743;52.008;5.644;2023-10-31T05:18:07;15.60;99.90
45008;DHT22;30743;52.008;5.644;2023-10-31T05:20:32;15.40;99.90
45008;DHT22;30743;52.008;5.644;2023-10-31T05:22:58;15.10;99.90
45008;DHT22;30743;52.008;5.644;2023-10-31T05:25:23;15.10;99.90
45008;DHT22;30743;52.008;5.644;2023-10-31T05:27:49;15.20;99.90
45008;DHT22;30743;52.008;5.644;2023-10-31T05:30:15;15.40;99.90
45008;DHT22;30743;52.008;5.644;2023-10-31T05:32:40;15.50;99.90
45008;DHT22;30743;52.008;5.644;2023-10-31T05:35:06;15.40;99.90
45008;DHT22;30743;52.008;5.644;2023-10-31T05:37:31;15.50;99.90
45008;DHT22;30743;52.008;5.644;2023-10-31T05:39:57;15.20;99.90
45008;DHT22;30743;52.008;5.644;2023-10-31T05:42:22;15.60;99.90
45008;DHT22;30743;52.008;5.644;2023-10-31T05:44:48;15.40;99.90
45008;DHT22;30743;52.008;5.644;2023-10-31T05:47:14;15.30;99.90
45008;DHT22;30743;52.008;5.644;2023-10-31T05:49:42;15.10;99.90
45008;DHT22;30743;52.008;5.644;2023-10-31T05:52:08;14.90;99.90
45008;DHT22;30743;52.008;5.644;2023-10-31T05:54:34;14.70;99.90
45008;DHT22;30743;52.008;5.644;2023-10-31T05:56:59;14.70;99.90
45008;DHT22;30743;52.008;5.644;2023-10-31T05:59:25;14.60;99.90
45008;DHT22;30743;52.008;5.644;2023-10-31T06:01:50;14.50;99.90
45008;DHT22;30743;52.008;5.644;2023-10-31T06:04:16;14.50;99.90
45008;DHT22;30743;52.008;5.644;2023-10-31T06:06:41;14.40;99.90
45008;DHT22;30743;52.008;5.644;2023-10-31T06:09:07;14.40;99.90
45008;DHT22;30743;52.008;5.644;2023-10-31T06:11:34;14.40;99.90
45008;DHT22;30743;52.008;5.644;2023-10-31T06:13:59;14.40;99.90
45008;DHT22;30743;52.008;5.644;2023-10-31T06:16:25;14.50;99.90
45008;DHT22;30743;52.008;5.644;2023-10-31T06:18:50;14.60;99.90
45008;DHT22;30743;52.008;5.644;2023-10-31T06:21:16;14.50;99.90
45008;DHT22;30743;52.008;5.644;2023-10-31T06:23:41;14.50;99.90
45008;DHT22;30743;52.008;5.644;2023-10-31T06:26:10;14.50;99.90
45008;DHT22;30743;52.008;5.644;2023-10-31T06:28:36;14.30;99.90
45008;DHT22;30743;52.008;5.644;2023-10-31T06:31:03;14.20;99.90
45008;DHT22;30743;52.008;5.644;2023-10-31T06:33:29;14.30;99.90
45008;DHT22;30743;52.008;5.644;2023-10-31T06:35:54;14.40;99.90
45008;DHT22;30743;52.008;5.644;2023-10-31T06:38:20;14.30;99.90
45008;DHT22;30743;52.008;5.644;2023-10-31T06:40:45;14.40;99.90
45008;DHT22;30743;52.008;5.644;2023-10-31T06:43:11;14.30;99.90
45008;DHT22;30743;52.008;5.644;2023-10-31T06:45:37;14.40;99.90
45008;DHT22;30743;52.008;5.644;2023-10-31T06:48:02;14.50;99.90
45008;DHT22;30743;52.008;5.644;2023-10-31T06:50:28;14.40;99.90
45008;DHT22;30743;52.008;5.644;2023-10-31T06:52:54;14.50;99.90
45008;DHT22;30743;52.008;5.644;2023-10-31T06:55:20;15.10;99.90
45008;DHT22;30743;52.008;5.644;2023-10-31T06:57:45;14.30;99.90
45008;DHT22;30743;52.008;5.644;2023-10-31T07:00:11;14.40;99.90
45008;DHT22;30743;52.008;5.644;2023-10-31T07:02:37;14.60;99.90
45008;DHT22;30743;52.008;5.644;2023-10-31T07:05:03;14.60;99.90
45008;DHT22;30743;52.008;5.644;2023-10-31T07:07:29;14.60;99.90
45008;DHT22;30743;52.008;5.644;2023-10-31T07:09:55;14.60;99.90
45008;DHT22;30743;52.008;5.644;2023-10-31T07:12:20;14.60;99.90
45008;DHT22;30743;52.008;5.644;2023-10-31T07:14:46;14.70;99.90
45008;DHT22;30743;52.008;5.644;2023-10-31T07:17:12;15.00;99.90
45008;DHT22;30743;52.008;5.644;2023-10-31T07:19:37;15.10;99.90
45008;DHT22;30743;52.008;5.644;2023-10-31T07:22:03;15.30;99.90
45008;DHT22;30743;52.008;5.644;2023-10-31T07:24:29;15.40;99.90
45008;DHT22;30743;52.008;5.644;2023-10-31T07:26:54;15.50;99.90
45008;DHT22;30743;52.008;5.644;2023-10-31T07:29:20;15.30;99.90
45008;DHT22;30743;52.008;5.644;2023-10-31T07:31:46;15.20;99.90
45008;DHT22;30743;52.008;5.644;2023-10-31T07:34:11;15.20;99.90
45008;DHT22;30743;52.008;5.644;2023-10-31T07:36:37;15.20;99.90
45008;DHT22;30743;52.008;5.644;2023-10-31T07:39:04;15.20;99.90
45008;DHT22;30743;52.008;5.644;2023-10-31T07:41:30;15.40;99.90
45008;DHT22;30743;52.008;5.644;2023-10-31T07:43:55;15.50;99.90
45008;DHT22;30743;52.008;5.644;2023-10-31T07:46:21;15.40;99.90
45008;DHT22;30743;52.008;5.644;2023-10-31T07:48:48;15.50;99.90
45008;DHT22;30743;52.008;5.644;2023-10-31T07:51:14;15.40;99.90
45008;DHT22;30743;52.008;5.644;2023-10-31T07:53:41;15.40;99.90
45008;DHT22;30743;52.008;5.644;2023-10-31T07:56:15;15.50;99.90
45008;DHT22;30743;52.008;5.644;2023-10-31T07:58:40;15.50;99.90
45008;DHT22;30743;52.008;5.644;2023-10-31T08:01:06;15.70;99.90
45008;DHT22;30743;52.008;5.644;2023-10-31T08:03:36;15.80;99.90
45008;DHT22;30743;52.008;5.644;2023-10-31T08:06:02;16.10;99.90
45008;DHT22;30743;52.008;5.644;2023-10-31T08:08:27;16.40;99.90
45008;DHT22;30743;52.008;5.644;2023-10-31T08:10:53;16.80;99.90
45008;DHT22;30743;52.008;5.644;2023-10-31T08:13:18;16.60;99.90
45008;DHT22;30743;52.008;5.644;2023-10-31T08:15:44;16.70;99.90
45008;DHT22;30743;52.008;5.644;2023-10-31T08:18:10;16.80;99.90
45008;DHT22;30743;52.008;5.644;2023-10-31T08:20:36;16.80;99.90
45008;DHT22;30743;52.008;5.644;2023-10-31T08:23:01;16.60;99.90
45008;DHT22;30743;52.008;5.644;2023-10-31T08:25:27;16.80;99.90
45008;DHT22;30743;52.008;5.644;2023-10-31T08:27:52;16.80;99.90
45008;DHT22;30743;52.008;5.644;2023-10-31T08:30:18;16.70;99.90
45008;DHT22;30743;52.008;5.644;2023-10-31T08:32:45;15.90;99.90
45008;DHT22;30743;52.008;5.644;2023-10-31T08:35:11;16.90;99.90
45008;DHT22;30743;52.008;5.644;2023-10-31T08:37:36;16.80;99.90
45008;DHT22;30743;52.008;5.644;2023-10-31T08:40:02;16.80;99.90
45008;DHT22;30743;52.008;5.644;2023-10-31T08:42:30;17.00;99.90
45008;DHT22;30743;52.008;5.644;2023-10-31T08:44:55;17.10;99.90
45008;DHT22;30743;52.008;5.644;2023-10-31T08:47:21;17.00;99.90
45008;DHT22;30743;52.008;5.644;2023-10-31T08:49:46;17.00;99.90
45008;DHT22;30743;52.008;5.644;2023-10-31T08:52:12;17.00;99.90
45008;DHT22;30743;52.008;5.644;2023-10-31T08:54:38;17.20;99.90
45008;DHT22;30743;52.008;5.644;2023-10-31T08:57:03;17.70;99.90
45008;DHT22;30743;52.008;5.644;2023-10-31T08:59:29;17.80;99.90
45008;DHT22;30743;52.008;5.644;2023-10-31T09:01:54;18.10;99.90
45008;DHT22;30743;52.008;5.644;2023-10-31T09:04:20;18.40;99.90
45008;DHT22;30743;52.008;5.644;2023-10-31T09:06:45;18.60;99.90
45008;DHT22;30743;52.008;5.644;2023-10-31T09:09:11;18.50;99.90
45008;DHT22;30743;52.008;5.644;2023-10-31T09:11:36;18.80;99.90
45008;DHT22;30743;52.008;5.644;2023-10-31T09:14:02;18.70;99.90
45008;DHT22;30743;52.008;5.644;2023-10-31T09:16:28;18.60;99.90
45008;DHT22;30743;52.008;5.644;2023-10-31T09:18:53;18.50;99.90
45008;DHT22;30743;52.008;5.644;2023-10-31T09:21:19;19.10;99.90
45008;DHT22;30743;52.008;5.644;2023-10-31T09:23:44;20.00;99.90
45008;DHT22;30743;52.008;5.644;2023-10-31T09:26:10;21.10;99.90
45008;DHT22;30743;52.008;5.644;2023-10-31T09:28:36;22.00;99.90
45008;DHT22;30743;52.008;5.644;2023-10-31T09:31:04;22.70;99.90
45008;DHT22;30743;52.008;5.644;2023-10-31T09:33:30;23.40;99.90
45008;DHT22;30743;52.008;5.644;2023-10-31T09:35:55;23.20;99.90
45008;DHT22;30743;52.008;5.644;2023-10-31T09:38:21;23.80;99.90
45008;DHT22;30743;52.008;5.644;2023-10-31T09:40:46;24.50;99.90
45008;DHT22;30743;52.008;5.644;2023-10-31T09:43:12;24.70;99.90
45008;DHT22;30743;52.008;5.644;2023-10-31T09:45:37;24.70;99.90
45008;DHT22;30743;52.008;5.644;2023-10-31T09:48:03;24.40;99.90
45008;DHT22;30743;52.008;5.644;2023-10-31T09:50:30;24.10;99.90
45008;DHT22;30743;52.008;5.644;2023-10-31T09:52:56;23.90;99.90
45008;DHT22;30743;52.008;5.644;2023-10-31T09:55:22;23.80;99.90
45008;DHT22;30743;52.008;5.644;2023-10-31T09:57:48;24.40;99.90
45008;DHT22;30743;52.008;5.644;2023-10-31T10:00:14;25.50;99.90
45008;DHT22;30743;52.008;5.644;2023-10-31T10:02:40;26.70;99.90
45008;DHT22;30743;52.008;5.644;2023-10-31T10:05:07;27.50;99.90
45008;DHT22;30743;52.008;5.644;2023-10-31T10:07:34;28.60;99.90
45008;DHT22;30743;52.008;5.644;2023-10-31T10:10:01;29.10;99.90
45008;DHT22;30743;52.008;5.644;2023-10-31T10:12:26;29.10;99.90
45008;DHT22;30743;52.008;5.644;2023-10-31T10:14:52;29.10;99.90
45008;DHT22;30743;52.008;5.644;2023-10-31T10:17:21;29.00;99.90
45008;DHT22;30743;52.008;5.644;2023-10-31T10:19:47;28.70;99.90
45008;DHT22;30743;52.008;5.644;2023-10-31T10:22:13;28.10;99.90
45008;DHT22;30743;52.008;5.644;2023-10-31T10:24:41;27.70;99.90
45008;DHT22;30743;52.008;5.644;2023-10-31T10:27:08;27.50;99.90
45008;DHT22;30743;52.008;5.644;2023-10-31T10:29:38;27.30;99.90
45008;DHT22;30743;52.008;5.644;2023-10-31T10:32:06;27.20;99.90
45008;DHT22;30743;52.008;5.644;2023-10-31T10:34:34;27.10;99.90
45008;DHT22;30743;52.008;5.644;2023-10-31T10:37:01;27.00;99.90
45008;DHT22;30743;52.008;5.644;2023-10-31T10:39:32;27.10;99.90
45008;DHT22;30743;52.008;5.644;2023-10-31T10:41:59;26.90;99.90
45008;DHT22;30743;52.008;5.644;2023-10-31T10:44:35;26.30;99.90
45008;DHT22;30743;52.008;5.644;2023-10-31T10:47:05;26.10;99.90
45008;DHT22;30743;52.008;5.644;2023-10-31T10:49:36;25.50;99.90
45008;DHT22;30743;52.008;5.644;2023-10-31T10:54:45;24.30;99.90
45008;DHT22;30743;52.008;5.644;2023-10-31T11:00:04;23.70;99.90
45008;DHT22;30743;52.008;5.644;2023-10-31T11:02:36;23.50;99.90
45008;DHT22;30743;52.008;5.644;2023-10-31T11:05:05;22.90;99.90
45008;DHT22;30743;52.008;5.644;2023-10-31T11:07:30;22.20;99.90
45008;DHT22;30743;52.008;5.644;2023-10-31T11:09:58;21.30;99.90
45008;DHT22;30743;52.008;5.644;2023-10-31T11:12:29;21.40;99.90
45008;DHT22;30743;52.008;5.644;2023-10-31T11:14:56;21.60;99.90
45008;DHT22;30743;52.008;5.644;2023-10-31T11:17:28;22.20;99.90
45008;DHT22;30743;52.008;5.644;2023-10-31T11:19:55;23.20;99.90
45008;DHT22;30743;52.008;5.644;2023-10-31T11:22:21;23.80;99.90
45008;DHT22;30743;52.008;5.644;2023-10-31T11:24:48;24.30;99.90
45008;DHT22;30743;52.008;5.644;2023-10-31T11:27:14;24.00;99.90
45008;DHT22;30743;52.008;5.644;2023-10-31T11:29:40;23.60;99.90
45008;DHT22;30743;52.008;5.644;2023-10-31T11:32:12;23.20;99.90
45008;DHT22;30743;52.008;5.644;2023-10-31T11:34:38;22.70;99.90
45008;DHT22;30743;52.008;5.644;2023-10-31T11:42:56;21.60;99.90
45008;DHT22;30743;52.008;5.644;2023-10-31T11:45:44;21.50;99.90
45008;DHT22;30743;52.008;5.644;2023-10-31T11:48:12;21.00;99.90
45008;DHT22;30743;52.008;5.644;2023-10-31T11:50:38;20.80;99.90
45008;DHT22;30743;52.008;5.644;2023-10-31T11:53:08;20.50;99.90
45008;DHT22;30743;52.008;5.644;2023-10-31T11:55:36;20.40;99.90
45008;DHT22;30743;52.008;5.644;2023-10-31T11:58:21;19.80;99.90
45008;DHT22;30743;52.008;5.644;2023-10-31T12:00:51;19.50;99.90
45008;DHT22;30743;52.008;5.644;2023-10-31T12:03:18;19.10;99.90
45008;DHT22;30743;52.008;5.644;2023-10-31T12:05:59;19.20;99.90
45008;DHT22;30743;52.008;5.644;2023-10-31T12:08:31;19.80;99.90
45008;DHT22;30743;52.008;5.644;2023-10-31T12:13:34;20.30;99.90
45008;DHT22;30743;52.008;5.644;2023-10-31T12:16:00;20.20;99.90
45008;DHT22;30743;52.008;5.644;2023-10-31T12:18:30;20.20;99.90
45008;DHT22;30743;52.008;5.644;2023-10-31T12:20:55;19.90;99.90
45008;DHT22;30743;52.008;5.644;2023-10-31T12:23:21;19.50;99.90
45008;DHT22;30743;52.008;5.644;2023-10-31T12:25:51;19.30;99.90
45008;DHT22;30743;52.008;5.644;2023-10-31T12:28:24;19.00;99.90
45008;DHT22;30743;52.008;5.644;2023-10-31T12:30:52;18.40;99.90
45008;DHT22;30743;52.008;5.644;2023-10-31T12:33:20;18.00;99.90
45008;DHT22;30743;52.008;5.644;2023-10-31T12:35:47;17.80;99.90
45008;DHT22;30743;52.008;5.644;2023-10-31T12:38:14;17.80;99.90
45008;DHT22;30743;52.008;5.644;2023-10-31T12:40:43;17.90;99.90
45008;DHT22;30743;52.008;5.644;2023-10-31T12:43:09;18.10;99.90
45008;DHT22;30743;52.008;5.644;2023-10-31T12:45:35;17.80;99.90
45008;DHT22;30743;52.008;5.644;2023-10-31T12:48:10;17.60;99.90
45008;DHT22;30743;52.008;5.644;2023-10-31T12:50:38;17.50;99.90
45008;DHT22;30743;52.008;5.644;2023-10-31T12:53:05;17.70;99.90
45008;DHT22;30743;52.008;5.644;2023-10-31T12:55:40;17.60;99.90
45008;DHT22;30743;52.008;5.644;2023-10-31T12:58:06;17.70;99.90
45008;DHT22;30743;52.008;5.644;2023-10-31T13:00:33;18.10;99.90
45008;DHT22;30743;52.008;5.644;2023-10-31T13:03:01;18.30;99.90
45008;DHT22;30743;52.008;5.644;2023-10-31T13:05:27;18.40;99.90
45008;DHT22;30743;52.008;5.644;2023-10-31T13:07:54;18.60;99.90
45008;DHT22;30743;52.008;5.644;2023-10-31T13:10:25;18.90;99.90
45008;DHT22;30743;52.008;5.644;2023-10-31T13:12:52;18.70;99.90
45008;DHT22;30743;52.008;5.644;2023-10-31T13:15:20;18.70;99.90
45008;DHT22;30743;52.008;5.644;2023-10-31T13:17:46;19.00;99.90
45008;DHT22;30743;52.008;5.644;2023-10-31T13:20:14;19.00;99.90
45008;DHT22;30743;52.008;5.644;2023-10-31T13:22:40;18.90;99.90
45008;DHT22;30743;52.008;5.644;2023-10-31T13:25:08;19.10;99.90
45008;DHT22;30743;52.008;5.644;2023-10-31T13:27:36;18.90;99.90
45008;DHT22;30743;52.008;5.644;2023-10-31T13:30:06;18.90;99.90
45008;DHT22;30743;52.008;5.644;2023-10-31T13:32:31;18.70;99.90
45008;DHT22;30743;52.008;5.644;2023-10-31T13:34:57;18.70;99.90
45008;DHT22;30743;52.008;5.644;2023-10-31T13:37:22;18.40;99.90
45008;DHT22;30743;52.008;5.644;2023-10-31T13:39:48;18.40;99.90
45008;DHT22;30743;52.008;5.644;2023-10-31T13:42:14;18.40;99.90
45008;DHT22;30743;52.008;5.644;2023-10-31T13:44:42;18.00;99.90
45008;DHT22;30743;52.008;5.644;2023-10-31T13:47:08;17.80;99.90
45008;DHT22;30743;52.008;5.644;2023-10-31T13:49:34;17.80;99.90
45008;DHT22;30743;52.008;5.644;2023-10-31T13:52:00;17.50;99.90
45008;DHT22;30743;52.008;5.644;2023-10-31T13:54:25;18.00;99.90
45008;DHT22;30743;52.008;5.644;2023-10-31T13:56:51;17.30;99.90
45008;DHT22;30743;52.008;5.644;2023-10-31T13:59:16;17.00;99.90
45008;DHT22;30743;52.008;5.644;2023-10-31T14:01:43;17.00;99.90
45008;DHT22;30743;52.008;5.644;2023-10-31T14:04:11;17.00;99.90
45008;DHT22;30743;52.008;5.644;2023-10-31T14:06:39;17.20;99.90
45008;DHT22;30743;52.008;5.644;2023-10-31T14:09:04;17.30;99.90
45008;DHT22;30743;52.008;5.644;2023-10-31T14:11:30;17.30;99.90
45008;DHT22;30743;52.008;5.644;2023-10-31T14:13:56;17.30;99.90
45008;DHT22;30743;52.008;5.644;2023-10-31T14:16:25;17.40;99.90
45008;DHT22;30743;52.008;5.644;2023-10-31T14:18:50;17.70;99.90
45008;DHT22;30743;52.008;5.644;2023-10-31T14:21:16;17.70;99.90
45008;DHT22;30743;52.008;5.644;2023-10-31T14:23:42;18.00;99.90
45008;DHT22;30743;52.008;5.644;2023-10-31T14:26:07;18.10;99.90
45008;DHT22;30743;52.008;5.644;2023-10-31T14:28:32;17.80;99.90
45008;DHT22;30743;52.008;5.644;2023-10-31T14:30:58;17.90;99.90
45008;DHT22;30743;52.008;5.644;2023-10-31T14:33:23;17.80;99.90
45008;DHT22;30743;52.008;5.644;2023-10-31T14:35:49;17.90;99.90
45008;DHT22;30743;52.008;5.644;2023-10-31T14:38:14;18.00;99.90
45008;DHT22;30743;52.008;5.644;2023-10-31T14:40:40;18.00;99.90
45008;DHT22;30743;52.008;5.644;2023-10-31T14:43:05;18.70;99.90
45008;DHT22;30743;52.008;5.644;2023-10-31T14:45:31;17.60;99.90
45008;DHT22;30743;52.008;5.644;2023-10-31T14:47:56;17.50;99.90
45008;DHT22;30743;52.008;5.644;2023-10-31T14:50:21;17.30;99.90
45008;DHT22;30743;52.008;5.644;2023-10-31T14:52:47;17.00;99.90
45008;DHT22;30743;52.008;5.644;2023-10-31T14:55:13;16.80;99.90
45008;DHT22;30743;52.008;5.644;2023-10-31T14:57:38;16.50;99.90
45008;DHT22;30743;52.008;5.644;2023-10-31T15:00:05;16.50;99.90
45008;DHT22;30743;52.008;5.644;2023-10-31T15:02:31;16.50;99.90
45008;DHT22;30743;52.008;5.644;2023-10-31T15:04:56;17.00;99.90
45008;DHT22;30743;52.008;5.644;2023-10-31T15:07:22;16.50;99.90
45008;DHT22;30743;52.008;5.644;2023-10-31T15:09:47;16.50;99.90
45008;DHT22;30743;52.008;5.644;2023-10-31T15:12:13;16.60;99.90
45008;DHT22;30743;52.008;5.644;2023-10-31T15:14:39;16.60;99.90
45008;DHT22;30743;52.008;5.644;2023-10-31T15:17:04;16.60;99.90
45008;DHT22;30743;52.008;5.644;2023-10-31T15:19:29;16.50;99.90
45008;DHT22;30743;52.008;5.644;2023-10-31T15:21:55;16.60;99.90
45008;DHT22;30743;52.008;5.644;2023-10-31T15:24:20;16.60;99.90
45008;DHT22;30743;52.008;5.644;2023-10-31T15:26:46;16.50;99.90
45008;DHT22;30743;52.008;5.644;2023-10-31T15:29:11;16.80;99.90
45008;DHT22;30743;52.008;5.644;2023-10-31T15:31:42;16.40;99.90
45008;DHT22;30743;52.008;5.644;2023-10-31T15:34:07;16.40;99.90
45008;DHT22;30743;52.008;5.644;2023-10-31T15:36:32;16.40;99.90
45008;DHT22;30743;52.008;5.644;2023-10-31T15:38:58;16.50;99.90